sensor_id;sensor_type;location;lat;lon;timestamp;temperature;humidity
23597;DHT22;40226;50.874;4.394;2023-04-03T00:01:32;5.20;99.90
23597;DHT22;40226;50.874;4.394;2023-04-03T00:03:57;5.10;99.90
23597;DHT22;40226;50.874;4.394;2023-04-03T00:06:24;5.10;99.90
23597;DHT22;40226;50.874;4.394;2023-04-03T00:08:50;5.00;99.90
23597;DHT22;40226;50.874;4.394;2023-04-03T00:11:16;4.90;99.90
23597;DHT22;40226;50.874;4.394;2023-04-03T00:13:42;4.80;99.90
23597;DHT22;40226;50.874;4.394;2023-04-03T00:16:09;4.80;99.90
23597;DHT22;40226;50.874;4.394;2023-04-03T00:18:36;4.80;99.90
23597;DHT22;40226;50.874;4.394;2023-04-03T00:21:03;4.90;99.90
23597;DHT22;40226;50.874;4.394;2023-04-03T00:23:28;5.00;99.90
23597;DHT22;40226;50.874;4.394;2023-04-03T00:25:54;4.90;99.90
23597;DHT22;40226;50.874;4.394;2023-04-03T00:28:21;5.00;99.90
23597;DHT22;40226;50.874;4.394;2023-04-03T00:30:52;5.00;99.90
23597;DHT22;40226;50.874;4.394;2023-04-03T00:33:23;4.80;99.90
23597;DHT22;40226;50.874;4.394;2023-04-03T00:35:50;4.60;99.90
23597;DHT22;40226;50.874;4.394;2023-04-03T00:38:16;4.70;99.90
23597;DHT22;40226;50.874;4.394;2023-04-03T00:40:44;4.70;99.90
23597;DHT22;40226;50.874;4.394;2023-04-03T00:43:22;4.60;99.90
23597;DHT22;40226;50.874;4.394;2023-04-03T00:45:58;4.60;99.90
23597;DHT22;40226;50.874;4.394;2023-04-03T00:48:43;4.70;99.90
23597;DHT22;40226;50.874;4.394;2023-04-03T00:51:13;4.60;99.90
23597;DHT22;40226;50.874;4.394;2023-04-03T00:53:49;4.70;99.90
23597;DHT22;40226;50.874;4.394;2023-04-03T00:56:18;4.70;99.90
23597;DHT22;40226;50.874;4.394;2023-04-03T00:58:49;4.80;99.90
23597;DHT22;40226;50.874;4.394;2023-04-03T01:01:21;4.70;99.90
23597;DHT22;40226;50.874;4.394;2023-04-03T01:03:48;4.60;99.90
23597;DHT22;40226;50.874;4.394;2023-04-03T01:06:16;4.60;99.90
23597;DHT22;40226;50.874;4.394;2023-04-03T01:08:42;4.70;99.90
23597;DHT22;40226;50.874;4.394;2023-04-03T01:11:08;4.60;99.90
23597;DHT22;40226;50.874;4.394;2023-04-03T01:13:34;4.60;99.90
23597;DHT22;40226;50.874;4.394;2023-04-03T01:16:04;4.50;99.90
23597;DHT22;40226;50.874;4.394;2023-04-03T01:18:31;4.50;99.90
23597;DHT22;40226;50.874;4.394;2023-04-03T01:23:40;4.30;99.90
23597;DHT22;40226;50.874;4.394;2023-04-03T01:26:09;4.20;99.90
23597;DHT22;40226;50.874;4.394;2023-04-03T01:28:37;4.20;99.90
23597;DHT22;40226;50.874;4.394;2023-04-03T01:31:25;4.40;99.90
23597;DHT22;40226;50.874;4.394;2023-04-03T01:33:52;4.20;99.90
23597;DHT22;40226;50.874;4.394;2023-04-03T01:36:20;4.30;99.90
23597;DHT22;40226;50.874;4.394;2023-04-03T01:38:47;4.30;99.90
23597;DHT22;40226;50.874;4.394;2023-04-03T01:41:12;4.20;99.90
23597;DHT22;40226;50.874;4.394;2023-04-03T01:43:38;4.10;99.90
23597;DHT22;40226;50.874;4.394;2023-04-03T01:46:04;4.20;99.90
23597;DHT22;40226;50.874;4.394;2023-04-03T01:48:29;4.20;99.90
23597;DHT22;40226;50.874;4.394;2023-04-03T01:50:55;4.20;99.90
23597;DHT22;40226;50.874;4.394;2023-04-03T01:53:21;4.10;99.90
23597;DHT22;40226;50.874;4.394;2023-04-03T01:55:47;4.30;99.90
23597;DHT22;40226;50.874;4.394;2023-04-03T01:58:13;4.40;99.90
23597;DHT22;40226;50.874;4.394;2023-04-03T02:00:39;4.20;99.90
23597;DHT22;40226;50.874;4.394;2023-04-03T02:03:04;4.10;99.90
23597;DHT22;40226;50.874;4.394;2023-04-03T02:05:30;4.10;99.90
23597;DHT22;40226;50.874;4.394;2023-04-03T02:07:56;4.20;99.90
23597;DHT22;40226;50.874;4.394;2023-04-03T02:10:22;4.30;99.90
23597;DHT22;40226;50.874;4.394;2023-04-03T02:12:47;4.00;99.90
23597;DHT22;40226;50.874;4.394;2023-04-03T02:15:13;4.00;99.90
23597;DHT22;40226;50.874;4.394;2023-04-03T02:17:38;4.00;99.90
23597;DHT22;40226;50.874;4.394;2023-04-03T02:20:05;4.10;99.90
23597;DHT22;40226;50.874;4.394;2023-04-03T02:22:31;4.20;99.90
23597;DHT22;40226;50.874;4.394;2023-04-03T02:24:56;4.30;99.90
23597;DHT22;40226;50.874;4.394;2023-04-03T02:27:22;4.20;99.90
23597;DHT22;40226;50.874;4.394;2023-04-03T02:29:47;4.00;99.90
23597;DHT22;40226;50.874;4.394;2023-04-03T02:32:13;4.00;99.90
23597;DHT22;40226;50.874;4.394;2023-04-03T02:34:39;4.00;99.90
23597;DHT22;40226;50.874;4.394;2023-04-03T02:37:04;3.90;99.90
23597;DHT22;40226;50.874;4.394;2023-04-03T02:39:30;3.80;99.90
23597;DHT22;40226;50.874;4.394;2023-04-03T02:41:56;3.80;99.90
23597;DHT22;40226;50.874;4.394;2023-04-03T02:44:22;3.80;99.90
23597;DHT22;40226;50.874;4.394;2023-04-03T02:46:49;3.70;99.90
23597;DHT22;40226;50.874;4.394;2023-04-03T02:49:14;3.60;99.90
23597;DHT22;40226;50.874;4.394;2023-04-03T02:51:41;3.70;99.90
23597;DHT22;40226;50.874;4.394;2023-04-03T02:54:07;3.90;99.90
23597;DHT22;40226;50.874;4.394;2023-04-03T02:56:32;3.90;99.90
23597;DHT22;40226;50.874;4.394;2023-04-03T02:58:58;3.80;99.90
23597;DHT22;40226;50.874;4.394;2023-04-03T03:01:24;3.70;99.90
23597;DHT22;40226;50.874;4.394;2023-04-03T03:03:49;3.60;99.90
23597;DHT22;40226;50.874;4.394;2023-04-03T03:06:16;3.70;99.90
23597;DHT22;40226;50.874;4.394;2023-04-03T03:08:43;3.70;99.90
23597;DHT22;40226;50.874;4.394;2023-04-03T03:11:08;3.60;99.90
23597;DHT22;40226;50.874;4.394;2023-04-03T03:13:35;3.70;99.90
23597;DHT22;40226;50.874;4.394;2023-04-03T03:16:01;3.60;99.90
23597;DHT22;40226;50.874;4.394;2023-04-03T03:18:27;3.60;99.90
23597;DHT22;40226;50.874;4.394;2023-04-03T03:20:55;3.50;99.90
23597;DHT22;40226;50.874;4.394;2023-04-03T03:23:22;3.50;99.90
23597;DHT22;40226;50.874;4.394;2023-04-03T03:25:48;3.50;99.90
23597;DHT22;40226;50.874;4.394;2023-04-03T03:28:14;3.50;99.90
23597;DHT22;40226;50.874;4.394;2023-04-03T03:30:40;3.40;99.90
23597;DHT22;40226;50.874;4.394;2023-04-03T03:33:05;3.40;99.90
23597;DHT22;40226;50.874;4.394;2023-04-03T03:35:32;3.40;99.90
23597;DHT22;40226;50.874;4.394;2023-04-03T03:37:57;3.60;99.90
23597;DHT22;40226;50.874;4.394;2023-04-03T03:40:23;3.70;99.90
23597;DHT22;40226;50.874;4.394;2023-04-03T03:42:48;3.70;99.90
23597;DHT22;40226;50.874;4.394;2023-04-03T03:45:14;3.70;99.90
23597;DHT22;40226;50.874;4.394;2023-04-03T03:47:40;3.60;99.90
23597;DHT22;40226;50.874;4.394;2023-04-03T03:50:06;3.60;99.90
23597;DHT22;40226;50.874;4.394;2023-04-03T03:52:32;3.70;99.90
23597;DHT22;40226;50.874;4.394;2023-04-03T03:54:57;3.70;99.90
23597;DHT22;40226;50.874;4.394;2023-04-03T03:57:23;3.60;99.90
23597;DHT22;40226;50.874;4.394;2023-04-03T03:59:48;3.60;99.90
23597;DHT22;40226;50.874;4.394;2023-04-03T04:02:15;3.50;99.90
23597;DHT22;40226;50.874;4.394;2023-04-03T04:04:41;3.50;99.90
23597;DHT22;40226;50.874;4.394;2023-04-03T04:07:07;3.40;99.90
23597;DHT22;40226;50.874;4.394;2023-04-03T04:09:32;3.40;99.90
23597;DHT22;40226;50.874;4.394;2023-04-03T04:11:58;3.50;99.90
23597;DHT22;40226;50.874;4.394;2023-04-03T04:14:23;3.40;99.90
23597;DHT22;40226;50.874;4.394;2023-04-03T04:16:49;3.40;99.90
23597;DHT22;40226;50.874;4.394;2023-04-03T04:19:15;3.30;99.90
23597;DHT22;40226;50.874;4.394;2023-04-03T04:21:40;3.50;99.90
23597;DHT22;40226;50.874;4.394;2023-04-03T04:24:07;3.30;99.90
23597;DHT22;40226;50.874;4.394;2023-04-03T04:26:33;3.30;99.90
23597;DHT22;40226;50.874;4.394;2023-04-03T04:28:59;3.40;99.90
23597;DHT22;40226;50.874;4.394;2023-04-03T04:31:25;3.40;99.90
23597;DHT22;40226;50.874;4.394;2023-04-03T04:33:51;3.50;99.90
23597;DHT22;40226;50.874;4.394;2023-04-03T04:36:16;3.50;99.90
23597;DHT22;40226;50.874;4.394;2023-04-03T04:38:42;3.40;99.90
23597;DHT22;40226;50.874;4.394;2023-04-03T04:41:07;3.30;99.90
23597;DHT22;40226;50.874;4.394;2023-04-03T04:43:33;3.30;99.90
23597;DHT22;40226;50.874;4.394;2023-04-03T04:46:06;3.20;99.90
23597;DHT22;40226;50.874;4.394;2023-04-03T04:48:32;3.20;99.90
23597;DHT22;40226;50.874;4.394;2023-04-03T04:50:58;3.10;99.90
23597;DHT22;40226;50.874;4.394;2023-04-03T04:53:24;3.20;99.90
23597;DHT22;40226;50.874;4.394;2023-04-03T04:55:50;3.40;99.90
23597;DHT22;40226;50.874;4.394;2023-04-03T04:58:15;3.30;99.90
23597;DHT22;40226;50.874;4.394;2023-04-03T05:00:41;3.20;99.90
23597;DHT22;40226;50.874;4.394;2023-04-03T05:03:06;3.10;99.90
23597;DHT22;40226;50.874;4.394;2023-04-03T05:05:32;3.20;99.90
23597;DHT22;40226;50.874;4.394;2023-04-03T05:07:58;3.20;99.90
23597;DHT22;40226;50.874;4.394;2023-04-03T05:10:24;3.20;99.90
23597;DHT22;40226;50.874;4.394;2023-04-03T05:12:50;3.10;99.90
23597;DHT22;40226;50.874;4.394;2023-04-03T05:15:16;3.10;99.90
23597;DHT22;40226;50.874;4.394;2023-04-03T05:17:41;3.20;99.90
23597;DHT22;40226;50.874;4.394;2023-04-03T05:20:07;3.20;99.90
23597;DHT22;40226;50.874;4.394;2023-04-03T05:22:33;3.00;99.90
23597;DHT22;40226;50.874;4.394;2023-04-03T05:24:59;3.00;99.90
23597;DHT22;40226;50.874;4.394;2023-04-03T05:27:25;3.10;99.90
23597;DHT22;40226;50.874;4.394;2023-04-03T05:29:54;3.00;99.90
23597;DHT22;40226;50.874;4.394;2023-04-03T05:32:20;3.00;99.90
23597;DHT22;40226;50.874;4.394;2023-04-03T05:34:46;3.00;99.90
23597;DHT22;40226;50.874;4.394;2023-04-03T05:37:11;3.00;99.90
23597;DHT22;40226;50.874;4.394;2023-04-03T05:39:37;3.00;99.90
23597;DHT22;40226;50.874;4.394;2023-04-03T05:42:06;3.10;99.90
23597;DHT22;40226;50.874;4.394;2023-04-03T05:44:31;3.20;99.90
23597;DHT22;40226;50.874;4.394;2023-04-03T05:46:57;3.30;99.90
23597;DHT22;40226;50.874;4.394;2023-04-03T05:49:22;3.20;99.90
23597;DHT22;40226;50.874;4.394;2023-04-03T05:51:48;3.30;99.90
23597;DHT22;40226;50.874;4.394;2023-04-03T05:54:32;3.30;99.90
23597;DHT22;40226;50.874;4.394;2023-04-03T05:56:57;3.50;99.90
23597;DHT22;40226;50.874;4.394;2023-04-03T05:59:23;3.40;99.90
23597;DHT22;40226;50.874;4.394;2023-04-03T06:01:48;3.40;99.90
23597;DHT22;40226;50.874;4.394;2023-04-03T06:04:14;3.50;99.90
23597;DHT22;40226;50.874;4.394;2023-04-03T06:06:45;3.50;99.90
23597;DHT22;40226;50.874;4.394;2023-04-03T06:09:11;3.40;99.90
23597;DHT22;40226;50.874;4.394;2023-04-03T06:11:37;3.60;99.90
23597;DHT22;40226;50.874;4.394;2023-04-03T06:14:02;3.70;99.90
23597;DHT22;40226;50.874;4.394;2023-04-03T06:16:28;3.70;99.90
23597;DHT22;40226;50.874;4.394;2023-04-03T06:18:54;3.80;99.90
23597;DHT22;40226;50.874;4.394;2023-04-03T06:21:20;3.90;99.90
23597;DHT22;40226;50.874;4.394;2023-04-03T06:23:46;4.10;99.90
23597;DHT22;40226;50.874;4.394;2023-04-03T06:26:11;4.00;99.90
23597;DHT22;40226;50.874;4.394;2023-04-03T06:28:37;4.10;99.90
23597;DHT22;40226;50.874;4.394;2023-04-03T06:31:02;4.30;99.90
23597;DHT22;40226;50.874;4.394;2023-04-03T06:33:28;4.30;99.90
23597;DHT22;40226;50.874;4.394;2023-04-03T06:35:58;4.20;98.40
23597;DHT22;40226;50.874;4.394;2023-04-03T06:38:24;4.20;99.90
23597;DHT22;40226;50.874;4.394;2023-04-03T06:40:50;4.30;99.90
23597;DHT22;40226;50.874;4.394;2023-04-03T06:43:17;4.20;99.90
23597;DHT22;40226;50.874;4.394;2023-04-03T06:45:42;4.20;99.90
23597;DHT22;40226;50.874;4.394;2023-04-03T06:48:08;4.20;98.30
23597;DHT22;40226;50.874;4.394;2023-04-03T06:50:34;4.30;99.90
23597;DHT22;40226;50.874;4.394;2023-04-03T06:52:59;4.40;99.90
23597;DHT22;40226;50.874;4.394;2023-04-03T06:55:26;4.60;99.90
23597;DHT22;40226;50.874;4.394;2023-04-03T06:57:52;4.60;96.30
23597;DHT22;40226;50.874;4.394;2023-04-03T07:00:18;4.70;93.80
23597;DHT22;40226;50.874;4.394;2023-04-03T07:02:44;4.70;89.10
23597;DHT22;40226;50.874;4.394;2023-04-03T07:05:10;4.90;79.60
23597;DHT22;40226;50.874;4.394;2023-04-03T07:07:36;4.70;78.70
23597;DHT22;40226;50.874;4.394;2023-04-03T07:10:04;4.70;84.40
23597;DHT22;40226;50.874;4.394;2023-04-03T07:12:29;4.80;78.80
23597;DHT22;40226;50.874;4.394;2023-04-03T07:14:55;4.90;73.10
23597;DHT22;40226;50.874;4.394;2023-04-03T07:17:21;5.00;72.80
23597;DHT22;40226;50.874;4.394;2023-04-03T07:19:46;5.20;63.40
23597;DHT22;40226;50.874;4.394;2023-04-03T07:22:12;5.10;56.20
23597;DHT22;40226;50.874;4.394;2023-04-03T07:24:38;5.20;55.60
23597;DHT22;40226;50.874;4.394;2023-04-03T07:27:04;5.30;46.20
23597;DHT22;40226;50.874;4.394;2023-04-03T07:29:29;5.30;50.30
23597;DHT22;40226;50.874;4.394;2023-04-03T07:31:55;5.40;56.10
23597;DHT22;40226;50.874;4.394;2023-04-03T07:34:21;5.50;46.50
23597;DHT22;40226;50.874;4.394;2023-04-03T07:36:47;5.50;31.00
23597;DHT22;40226;50.874;4.394;2023-04-03T07:39:12;5.40;29.10
23597;DHT22;40226;50.874;4.394;2023-04-03T07:41:38;5.40;30.20
23597;DHT22;40226;50.874;4.394;2023-04-03T07:44:04;5.60;22.60
23597;DHT22;40226;50.874;4.394;2023-04-03T07:46:31;5.60;20.60
23597;DHT22;40226;50.874;4.394;2023-04-03T07:48:56;5.60;14.40
23597;DHT22;40226;50.874;4.394;2023-04-03T07:51:22;5.60;14.10
23597;DHT22;40226;50.874;4.394;2023-04-03T07:53:47;5.70;21.00
23597;DHT22;40226;50.874;4.394;2023-04-03T07:56:14;5.80;19.40
23597;DHT22;40226;50.874;4.394;2023-04-03T07:58:39;5.90;6.90
23597;DHT22;40226;50.874;4.394;2023-04-03T08:01:05;5.80;5.40
23597;DHT22;40226;50.874;4.394;2023-04-03T08:03:31;5.90;7.70
23597;DHT22;40226;50.874;4.394;2023-04-03T08:06:05;6.00;8.80
23597;DHT22;40226;50.874;4.394;2023-04-03T08:08:31;6.10;4.10
23597;DHT22;40226;50.874;4.394;2023-04-03T08:10:59;6.40;1.00
23597;DHT22;40226;50.874;4.394;2023-04-03T08:13:26;6.40;1.00
23597;DHT22;40226;50.874;4.394;2023-04-03T08:15:51;6.50;1.00
23597;DHT22;40226;50.874;4.394;2023-04-03T08:18:18;6.70;1.00
23597;DHT22;40226;50.874;4.394;2023-04-03T08:20:47;6.70;1.00
23597;DHT22;40226;50.874;4.394;2023-04-03T08:23:12;6.80;1.00
23597;DHT22;40226;50.874;4.394;2023-04-03T08:25:42;6.80;1.00
23597;DHT22;40226;50.874;4.394;2023-04-03T08:28:09;6.70;1.00
23597;DHT22;40226;50.874;4.394;2023-04-03T08:30:39;6.70;1.00
23597;DHT22;40226;50.874;4.394;2023-04-03T08:33:04;6.60;1.00
23597;DHT22;40226;50.874;4.394;2023-04-03T08:35:31;6.80;1.00
23597;DHT22;40226;50.874;4.394;2023-04-03T08:37:57;7.10;1.00
23597;DHT22;40226;50.874;4.394;2023-04-03T08:40:23;7.20;1.00
23597;DHT22;40226;50.874;4.394;2023-04-03T08:45:43;7.30;1.00
23597;DHT22;40226;50.874;4.394;2023-04-03T08:48:31;7.50;1.00
23597;DHT22;40226;50.874;4.394;2023-04-03T08:51:02;7.60;1.00
23597;DHT22;40226;50.874;4.394;2023-04-03T08:53:33;7.60;1.00
23597;DHT22;40226;50.874;4.394;2023-04-03T08:56:05;7.60;1.00
23597;DHT22;40226;50.874;4.394;2023-04-03T08:58:49;7.70;1.00
23597;DHT22;40226;50.874;4.394;2023-04-03T09:01:26;7.70;1.00
23597;DHT22;40226;50.874;4.394;2023-04-03T09:03:53;7.80;1.00
23597;DHT22;40226;50.874;4.394;2023-04-03T09:06:22;7.90;1.00
23597;DHT22;40226;50.874;4.394;2023-04-03T09:14:02;7.90;1.00
23597;DHT22;40226;50.874;4.394;2023-04-03T09:16:44;7.90;1.00
23597;DHT22;40226;50.874;4.394;2023-04-03T09:19:21;7.80;1.00
23597;DHT22;40226;50.874;4.394;2023-04-03T09:21:50;7.90;1.00
23597;DHT22;40226;50.874;4.394;2023-04-03T09:24:16;7.80;1.00
23597;DHT22;40226;50.874;4.394;2023-04-03T09:26:51;8.10;99.90
23597;DHT22;40226;50.874;4.394;2023-04-03T09:29:23;8.10;99.90
23597;DHT22;40226;50.874;4.394;2023-04-03T09:31:51;8.20;99.90
23597;DHT22;40226;50.874;4.394;2023-04-03T09:34:22;8.30;99.90
23597;DHT22;40226;50.874;4.394;2023-04-03T09:36:50;8.40;99.90
23597;DHT22;40226;50.874;4.394;2023-04-03T09:39:26;8.30;68.20
23597;DHT22;40226;50.874;4.394;2023-04-03T09:44:27;8.40;1.00
23597;DHT22;40226;50.874;4.394;2023-04-03T09:46:53;8.40;99.90
23597;DHT22;40226;50.874;4.394;2023-04-03T09:49:20;8.20;99.90
23597;DHT22;40226;50.874;4.394;2023-04-03T09:51:46;8.40;99.90
23597;DHT22;40226;50.874;4.394;2023-04-03T09:54:33;8.50;99.90
23597;DHT22;40226;50.874;4.394;2023-04-03T09:57:08;8.40;99.90
23597;DHT22;40226;50.874;4.394;2023-04-03T09:59:37;8.50;99.90
23597;DHT22;40226;50.874;4.394;2023-04-03T10:02:22;8.50;99.90
23597;DHT22;40226;50.874;4.394;2023-04-03T10:04:48;8.70;99.90
23597;DHT22;40226;50.874;4.394;2023-04-03T10:10:01;9.20;1.00
23597;DHT22;40226;50.874;4.394;2023-04-03T10:12:27;9.10;71.50
23597;DHT22;40226;50.874;4.394;2023-04-03T10:14:54;9.20;99.90
23597;DHT22;40226;50.874;4.394;2023-04-03T10:19:53;9.30;99.90
23597;DHT22;40226;50.874;4.394;2023-04-03T10:28:12;9.20;1.00
23597;DHT22;40226;50.874;4.394;2023-04-03T10:36:38;9.10;99.90
23597;DHT22;40226;50.874;4.394;2023-04-03T10:39:36;9.40;7.40
23597;DHT22;40226;50.874;4.394;2023-04-03T10:47:45;10.00;1.00
23597;DHT22;40226;50.874;4.394;2023-04-03T10:55:34;11.40;99.90
23597;DHT22;40226;50.874;4.394;2023-04-03T10:58:02;12.10;1.00
23597;DHT22;40226;50.874;4.394;2023-04-03T11:00:42;12.80;99.90
23597;DHT22;40226;50.874;4.394;2023-04-03T11:05:53;14.50;1.00
23597;DHT22;40226;50.874;4.394;2023-04-03T11:11:22;15.40;99.90
23597;DHT22;40226;50.874;4.394;2023-04-03T11:13:57;15.80;99.90
23597;DHT22;40226;50.874;4.394;2023-04-03T11:16:27;16.60;99.90
23597;DHT22;40226;50.874;4.394;2023-04-03T11:19:17;16.30;99.90
23597;DHT22;40226;50.874;4.394;2023-04-03T11:22:50;17.00;99.90
23597;DHT22;40226;50.874;4.394;2023-04-03T11:25:06;16.60;99.90
23597;DHT22;40226;50.874;4.394;2023-04-03T11:27:42;16.20;99.90
23597;DHT22;40226;50.874;4.394;2023-04-03T11:30:22;16.50;99.90
23597;DHT22;40226;50.874;4.394;2023-04-03T11:35:30;16.10;99.90
23597;DHT22;40226;50.874;4.394;2023-04-03T11:37:58;15.60;99.90
23597;DHT22;40226;50.874;4.394;2023-04-03T11:40:35;15.10;99.90
23597;DHT22;40226;50.874;4.394;2023-04-03T11:43:30;15.90;99.90
23597;DHT22;40226;50.874;4.394;2023-04-03T11:46:01;16.40;99.90
23597;DHT22;40226;50.874;4.394;2023-04-03T11:50:55;16.20;99.90
23597;DHT22;40226;50.874;4.394;2023-04-03T11:53:38;16.30;99.90
23597;DHT22;40226;50.874;4.394;2023-04-03T11:58:34;17.50;99.90
23597;DHT22;40226;50.874;4.394;2023-04-03T12:01:02;18.40;99.90
23597;DHT22;40226;50.874;4.394;2023-04-03T12:13:40;17.90;99.90
23597;DHT22;40226;50.874;4.394;2023-04-03T12:16:29;18.10;99.90
23597;DHT22;40226;50.874;4.394;2023-04-03T12:19:27;18.10;99.90
23597;DHT22;40226;50.874;4.394;2023-04-03T12:24:30;18.40;99.90
23597;DHT22;40226;50.874;4.394;2023-04-03T12:34:54;19.30;58.50
23597;DHT22;40226;50.874;4.394;2023-04-03T12:43:02;19.30;50.90
23597;DHT22;40226;50.874;4.394;2023-04-03T12:45:44;19.10;29.20
23597;DHT22;40226;50.874;4.394;2023-04-03T12:48:16;18.70;21.30
23597;DHT22;40226;50.874;4.394;2023-04-03T12:50:46;18.50;25.60
23597;DHT22;40226;50.874;4.394;2023-04-03T12:53:19;18.30;14.10
23597;DHT22;40226;50.874;4.394;2023-04-03T12:55:46;18.30;13.80
23597;DHT22;40226;50.874;4.394;2023-04-03T12:58:26;19.00;18.30
23597;DHT22;40226;50.874;4.394;2023-04-03T13:01:00;19.60;26.30
23597;DHT22;40226;50.874;4.394;2023-04-03T13:03:27;20.50;57.80
23597;DHT22;40226;50.874;4.394;2023-04-03T13:06:00;20.00;32.20
23597;DHT22;40226;50.874;4.394;2023-04-03T13:08:27;20.70;38.50
23597;DHT22;40226;50.874;4.394;2023-04-03T13:11:01;20.60;24.30
23597;DHT22;40226;50.874;4.394;2023-04-03T13:13:28;20.40;52.70
23597;DHT22;40226;50.874;4.394;2023-04-03T13:15:54;20.20;41.90
23597;DHT22;40226;50.874;4.394;2023-04-03T13:18:37;20.30;29.60
23597;DHT22;40226;50.874;4.394;2023-04-03T13:23:29;19.90;24.70
23597;DHT22;40226;50.874;4.394;2023-04-03T13:25:57;20.30;27.10
23597;DHT22;40226;50.874;4.394;2023-04-03T13:28:28;20.80;31.50
23597;DHT22;40226;50.874;4.394;2023-04-03T13:36:35;20.50;1.00
23597;DHT22;40226;50.874;4.394;2023-04-03T13:41:40;20.30;1.00
23597;DHT22;40226;50.874;4.394;2023-04-03T13:44:27;21.20;1.00
23597;DHT22;40226;50.874;4.394;2023-04-03T13:46:59;20.50;1.00
23597;DHT22;40226;50.874;4.394;2023-04-03T13:52:03;20.20;1.00
23597;DHT22;40226;50.874;4.394;2023-04-03T13:54:33;20.40;1.00
23597;DHT22;40226;50.874;4.394;2023-04-03T13:57:00;20.70;1.00
23597;DHT22;40226;50.874;4.394;2023-04-03T13:59:31;20.20;1.00
23597;DHT22;40226;50.874;4.394;2023-04-03T14:04:31;20.30;1.00
23597;DHT22;40226;50.874;4.394;2023-04-03T14:06:58;21.50;1.00
23597;DHT22;40226;50.874;4.394;2023-04-03T14:09:26;21.90;1.00
23597;DHT22;40226;50.874;4.394;2023-04-03T14:11:55;22.00;1.00
23597;DHT22;40226;50.874;4.394;2023-04-03T14:14:26;22.00;1.00
23597;DHT22;40226;50.874;4.394;2023-04-03T14:16:55;21.40;1.00
23597;DHT22;40226;50.874;4.394;2023-04-03T14:19:27;22.50;1.00
23597;DHT22;40226;50.874;4.394;2023-04-03T14:21:54;23.10;1.00
23597;DHT22;40226;50.874;4.394;2023-04-03T14:24:20;23.30;1.00
23597;DHT22;40226;50.874;4.394;2023-04-03T14:26:47;23.00;1.00
23597;DHT22;40226;50.874;4.394;2023-04-03T14:29:14;22.80;1.00
23597;DHT22;40226;50.874;4.394;2023-04-03T14:31:42;22.80;1.00
23597;DHT22;40226;50.874;4.394;2023-04-03T14:34:12;21.90;1.00
23597;DHT22;40226;50.874;4.394;2023-04-03T14:36:55;22.30;1.00
23597;DHT22;40226;50.874;4.394;2023-04-03T14:39:21;23.00;1.00
23597;DHT22;40226;50.874;4.394;2023-04-03T14:41:46;23.20;1.00
23597;DHT22;40226;50.874;4.394;2023-04-03T14:44:12;23.10;1.00
23597;DHT22;40226;50.874;4.394;2023-04-03T14:46:41;22.70;1.00
23597;DHT22;40226;50.874;4.394;2023-04-03T14:49:19;23.60;1.00
23597;DHT22;40226;50.874;4.394;2023-04-03T14:51:46;23.50;1.00
23597;DHT22;40226;50.874;4.394;2023-04-03T14:54:19;23.80;1.00
23597;DHT22;40226;50.874;4.394;2023-04-03T14:56:59;24.40;1.00
23597;DHT22;40226;50.874;4.394;2023-04-03T14:59:26;23.80;1.00
23597;DHT22;40226;50.874;4.394;2023-04-03T15:01:54;23.40;1.00
23597;DHT22;40226;50.874;4.394;2023-04-03T15:04:24;22.50;1.00
23597;DHT22;40226;50.874;4.394;2023-04-03T15:07:10;21.00;1.00
23597;DHT22;40226;50.874;4.394;2023-04-03T15:09:35;20.20;1.00
23597;DHT22;40226;50.874;4.394;2023-04-03T15:12:02;20.60;1.00
23597;DHT22;40226;50.874;4.394;2023-04-03T15:14:27;21.60;1.00
23597;DHT22;40226;50.874;4.394;2023-04-03T15:16:53;22.10;1.00
23597;DHT22;40226;50.874;4.394;2023-04-03T15:19:19;21.30;1.00
23597;DHT22;40226;50.874;4.394;2023-04-03T15:21:44;21.50;1.00
23597;DHT22;40226;50.874;4.394;2023-04-03T15:24:10;21.70;1.00
23597;DHT22;40226;50.874;4.394;2023-04-03T15:26:36;21.90;1.00
23597;DHT22;40226;50.874;4.394;2023-04-03T15:29:04;22.10;1.00
23597;DHT22;40226;50.874;4.394;2023-04-03T15:31:30;22.00;1.00
23597;DHT22;40226;50.874;4.394;2023-04-03T15:33:58;22.70;1.00
23597;DHT22;40226;50.874;4.394;2023-04-03T15:36:24;21.90;1.00
23597;DHT22;40226;50.874;4.394;2023-04-03T15:38:50;22.10;1.00
23597;DHT22;40226;50.874;4.394;2023-04-03T15:41:15;21.80;1.00
23597;DHT22;40226;50.874;4.394;2023-04-03T15:43:41;20.50;1.00
23597;DHT22;40226;50.874;4.394;2023-04-03T15:46:08;18.80;1.00
23597;DHT22;40226;50.874;4.394;2023-04-03T15:48:34;18.30;1.00
23597;DHT22;40226;50.874;4.394;2023-04-03T15:51:01;17.40;1.00
23597;DHT22;40226;50.874;4.394;2023-04-03T15:53:26;17.00;1.00
23597;DHT22;40226;50.874;4.394;2023-04-03T15:55:52;16.20;1.00
23597;DHT22;40226;50.874;4.394;2023-04-03T15:58:17;15.80;1.00
23597;DHT22;40226;50.874;4.394;2023-04-03T16:00:43;15.40;1.00
23597;DHT22;40226;50.874;4.394;2023-04-03T16:03:16;14.80;1.00
23597;DHT22;40226;50.874;4.394;2023-04-03T16:05:42;14.00;1.00
23597;DHT22;40226;50.874;4.394;2023-04-03T16:08:08;13.80;1.00
23597;DHT22;40226;50.874;4.394;2023-04-03T16:10:37;13.30;1.00
23597;DHT22;40226;50.874;4.394;2023-04-03T16:13:04;13.00;1.00
23597;DHT22;40226;50.874;4.394;2023-04-03T16:15:30;12.80;1.00
23597;DHT22;40226;50.874;4.394;2023-04-03T16:17:58;12.80;1.00
23597;DHT22;40226;50.874;4.394;2023-04-03T16:20:24;12.50;1.00
23597;DHT22;40226;50.874;4.394;2023-04-03T16:22:50;12.50;1.00
23597;DHT22;40226;50.874;4.394;2023-04-03T16:25:16;12.50;1.00
23597;DHT22;40226;50.874;4.394;2023-04-03T16:27:42;12.40;1.00
23597;DHT22;40226;50.874;4.394;2023-04-03T16:30:09;12.30;1.00
23597;DHT22;40226;50.874;4.394;2023-04-03T16:32:37;12.30;1.00
23597;DHT22;40226;50.874;4.394;2023-04-03T16:35:11;12.20;1.00
23597;DHT22;40226;50.874;4.394;2023-04-03T16:37:49;12.00;1.00
23597;DHT22;40226;50.874;4.394;2023-04-03T16:40:14;12.10;1.00
23597;DHT22;40226;50.874;4.394;2023-04-03T16:42:41;12.10;1.00
23597;DHT22;40226;50.874;4.394;2023-04-03T16:45:07;11.90;1.00
23597;DHT22;40226;50.874;4.394;2023-04-03T16:47:33;12.00;1.00
23597;DHT22;40226;50.874;4.394;2023-04-03T16:49:59;12.10;1.00
23597;DHT22;40226;50.874;4.394;2023-04-03T16:52:24;11.90;1.00
23597;DHT22;40226;50.874;4.394;2023-04-03T16:54:50;11.60;1.00
23597;DHT22;40226;50.874;4.394;2023-04-03T16:57:21;11.50;1.00
23597;DHT22;40226;50.874;4.394;2023-04-03T16:59:49;11.70;1.00
23597;DHT22;40226;50.874;4.394;2023-04-03T17:02:20;11.70;1.00
23597;DHT22;40226;50.874;4.394;2023-04-03T17:04:54;11.70;1.00
23597;DHT22;40226;50.874;4.394;2023-04-03T17:07:24;11.50;1.00
23597;DHT22;40226;50.874;4.394;2023-04-03T17:09:50;11.40;1.00
23597;DHT22;40226;50.874;4.394;2023-04-03T17:12:17;11.40;1.00
23597;DHT22;40226;50.874;4.394;2023-04-03T17:14:43;11.30;1.00
23597;DHT22;40226;50.874;4.394;2023-04-03T17:17:09;11.30;1.00
23597;DHT22;40226;50.874;4.394;2023-04-03T17:19:36;11.50;1.00
23597;DHT22;40226;50.874;4.394;2023-04-03T17:22:02;11.30;1.00
23597;DHT22;40226;50.874;4.394;2023-04-03T17:24:28;11.10;1.00
23597;DHT22;40226;50.874;4.394;2023-04-03T17:27:03;11.10;1.00
23597;DHT22;40226;50.874;4.394;2023-04-03T17:29:28;11.10;1.00